createdAt,value
2023-04-25T00:00:18.561Z,8.40
2023-04-25T00:02:45.347Z,8.37
2023-04-25T00:05:12.591Z,8.33
2023-04-25T00:07:39.622Z,8.29
2023-04-25T00:10:07.304Z,8.28
2023-04-25T00:12:34.538Z,8.27
2023-04-25T00:15:01.443Z,8.27
2023-04-25T00:17:28.282Z,8.25
2023-04-25T00:19:55.209Z,8.23
2023-04-25T00:22:22.040Z,8.22
2023-04-25T00:24:48.905Z,8.20
2023-04-25T00:27:15.581Z,8.19
2023-04-25T00:29:42.267Z,8.16
2023-04-25T00:32:09.825Z,8.12
2023-04-25T00:34:37.009Z,8.09
2023-04-25T00:37:03.770Z,8.05
2023-04-25T00:39:30.604Z,8.02
2023-04-25T00:41:57.272Z,7.98
2023-04-25T00:44:23.960Z,7.95
2023-04-25T00:46:51.398Z,7.91
2023-04-25T00:49:18.449Z,7.88
2023-04-25T00:51:45.760Z,7.85
2023-04-25T00:54:13.357Z,7.81
2023-04-25T00:56:40.477Z,7.79
2023-04-25T00:59:07.410Z,7.77
2023-04-25T01:01:34.122Z,7.77
2023-04-25T01:04:01.195Z,7.80
2023-04-25T01:06:28.491Z,7.81
2023-04-25T01:08:55.522Z,7.82
2023-04-25T01:11:22.251Z,7.83
2023-04-25T01:13:49.543Z,7.82
2023-04-25T01:16:16.545Z,7.81
2023-04-25T01:18:43.293Z,7.79
2023-04-25T01:21:11.570Z,7.76
2023-04-25T01:23:39.381Z,7.75
2023-04-25T01:26:06.069Z,7.75
2023-04-25T01:28:34.062Z,7.76
2023-04-25T01:31:00.865Z,7.78
2023-04-25T01:33:27.553Z,7.79
2023-04-25T01:35:54.362Z,7.80
2023-04-25T01:38:21.057Z,7.82
2023-04-25T01:40:50.659Z,7.83
2023-04-25T01:43:19.640Z,7.84
2023-04-25T01:45:46.412Z,7.83
2023-04-25T01:48:13.969Z,7.84
2023-04-25T01:50:41.070Z,7.83
2023-04-25T01:53:08.109Z,7.83
2023-04-25T01:55:34.763Z,7.81
2023-04-25T01:58:10.377Z,7.78
2023-04-25T02:00:53.779Z,7.74
2023-04-25T02:03:21.021Z,7.70
2023-04-25T02:05:47.981Z,7.63
2023-04-25T02:08:14.827Z,7.56
2023-04-25T02:10:41.787Z,7.50
2023-04-25T02:13:17.817Z,7.44
2023-04-25T02:16:11.505Z,7.39
2023-04-25T02:18:40.281Z,7.37
2023-04-25T02:21:07.246Z,7.36
2023-04-25T02:23:34.067Z,7.34
2023-04-25T02:26:00.864Z,7.33
2023-04-25T02:28:27.813Z,7.32
2023-04-25T02:30:55.436Z,7.30
2023-04-25T02:33:24.304Z,7.31
2023-04-25T02:35:51.070Z,7.31
2023-04-25T02:38:17.857Z,7.29
2023-04-25T02:40:44.543Z,7.29
2023-04-25T02:43:11.204Z,7.28
2023-04-25T02:45:38.855Z,7.26
2023-04-25T02:48:05.987Z,7.24
2023-04-25T02:50:32.782Z,7.21
2023-04-25T02:52:59.818Z,7.20
2023-04-25T02:55:30.094Z,7.20
2023-04-25T02:57:57.122Z,7.19
2023-04-25T03:00:37.578Z,7.20
2023-04-25T03:03:04.460Z,7.22
2023-04-25T03:05:31.167Z,7.23
2023-04-25T03:07:57.823Z,7.25
2023-04-25T03:10:25.061Z,7.27
2023-04-25T03:12:51.989Z,7.29
2023-04-25T03:15:19.687Z,7.31
2023-04-25T03:17:46.462Z,7.32
2023-04-25T03:20:13.496Z,7.33
2023-04-25T03:22:40.410Z,7.35
2023-04-25T03:25:08.119Z,7.39
2023-04-25T03:27:35.352Z,7.43
2023-04-25T03:30:02.742Z,7.48
2023-04-25T03:32:29.652Z,7.52
2023-04-25T03:34:56.573Z,7.57
2023-04-25T03:37:24.490Z,7.63
2023-04-25T03:39:51.176Z,7.69
2023-04-25T03:42:18.673Z,7.74
2023-04-25T03:44:45.540Z,7.80
2023-04-25T03:47:13.700Z,7.85
2023-04-25T03:49:40.352Z,7.91
2023-04-25T03:52:07.066Z,7.98
2023-04-25T03:54:36.655Z,8.08
2023-04-25T03:57:06.601Z,8.19
2023-04-25T03:59:35.505Z,8.32
2023-04-25T04:02:02.706Z,8.47
2023-04-25T04:04:31.331Z,8.65
2023-04-25T04:06:58.617Z,8.89
2023-04-25T04:09:28.562Z,9.21
2023-04-25T04:11:57.241Z,9.55
2023-04-25T04:14:23.940Z,9.92
2023-04-25T04:16:52.285Z,10.35
2023-04-25T04:19:19.259Z,10.84
2023-04-25T04:21:53.056Z,11.38
2023-04-25T04:24:19.726Z,11.90
2023-04-25T04:27:00.643Z,12.49
2023-04-25T04:29:34.541Z,13.00
2023-04-25T04:32:09.746Z,13.45
2023-04-25T04:34:36.930Z,13.73
2023-04-25T04:37:03.971Z,13.83
2023-04-25T04:39:30.883Z,13.84
2023-04-25T04:42:09.825Z,13.80
2023-04-25T04:44:55.968Z,13.69
2023-04-25T04:47:35.133Z,13.57
2023-04-25T04:50:17.268Z,13.47
2023-04-25T04:53:16.352Z,13.37
2023-04-25T04:55:57.563Z,13.30
2023-04-25T04:58:42.896Z,13.23
2023-04-25T05:01:28.347Z,13.16
2023-04-25T05:04:02.406Z,13.13
2023-04-25T05:06:49.167Z,13.11
2023-04-25T05:09:34.581Z,13.10
2023-04-25T05:12:16.167Z,13.11
2023-04-25T05:15:14.976Z,13.11
2023-04-25T05:18:00.562Z,13.12
2023-04-25T05:20:35.236Z,13.14
2023-04-25T05:23:02.116Z,13.17
2023-04-25T05:25:52.044Z,13.21
2023-04-25T05:28:44.823Z,13.25
2023-04-25T05:31:29.274Z,13.30
2023-04-25T05:34:10.505Z,13.35
2023-04-25T05:36:44.434Z,13.41
2023-04-25T05:39:11.625Z,13.47
2023-04-25T05:42:16.826Z,13.56
2023-04-25T05:45:22.135Z,13.66
2023-04-25T05:47:58.614Z,13.76
2023-04-25T05:51:04.722Z,13.86
2023-04-25T05:53:42.491Z,13.94
2023-04-25T05:56:09.414Z,14.01
2023-04-25T05:58:36.260Z,14.08
2023-04-25T06:01:03.822Z,14.14
2023-04-25T06:03:31.507Z,14.20
2023-04-25T06:05:58.894Z,14.27
2023-04-25T06:08:26.187Z,14.34
2023-04-25T06:10:52.861Z,14.41
2023-04-25T06:13:19.605Z,14.50
2023-04-25T06:15:46.596Z,14.59
2023-04-25T06:18:13.521Z,14.68
2023-04-25T06:20:40.886Z,14.76
2023-04-25T06:23:07.694Z,14.84
2023-04-25T06:25:46.616Z,14.94
2023-04-25T06:28:13.544Z,15.03
2023-04-25T06:30:41.542Z,15.12
2023-04-25T06:33:11.311Z,15.20
2023-04-25T06:35:38.283Z,15.28
2023-04-25T06:38:05.382Z,15.37
2023-04-25T06:40:32.706Z,15.46
2023-04-25T06:42:59.796Z,15.54
2023-04-25T06:45:37.456Z,15.62
2023-04-25T06:48:04.706Z,15.70
2023-04-25T06:50:31.704Z,15.78
2023-04-25T06:52:58.482Z,15.86
2023-04-25T06:55:25.495Z,15.94
2023-04-25T06:58:12.085Z,16.03
2023-04-25T07:00:50.951Z,16.09
2023-04-25T07:03:19.758Z,16.15
2023-04-25T07:05:47.346Z,16.20
2023-04-25T07:11:03.098Z,16.39
2023-04-25T07:13:29.920Z,16.43
2023-04-25T07:15:57.959Z,16.49
2023-04-25T07:18:24.814Z,16.57
2023-04-25T07:20:52.832Z,16.65
2023-04-25T07:23:19.781Z,16.73
2023-04-25T07:25:47.752Z,16.80
2023-04-25T07:28:18.060Z,16.87
2023-04-25T07:30:48.276Z,16.95
2023-04-25T07:33:15.086Z,17.03
2023-04-25T07:35:42.111Z,17.10
2023-04-25T07:38:09.109Z,17.17
2023-04-25T07:40:36.335Z,17.25
2023-04-25T07:43:06.464Z,17.31
2023-04-25T07:45:38.688Z,17.36
2023-04-25T07:48:06.020Z,17.37
2023-04-25T07:50:33.343Z,17.41
2023-04-25T07:53:00.280Z,17.46
2023-04-25T07:55:31.687Z,17.50
2023-04-25T07:58:09.212Z,17.54
2023-04-25T08:00:37.514Z,17.57
2023-04-25T08:03:40.018Z,17.66
2023-04-25T08:06:11.876Z,17.76
2023-04-25T08:08:46.618Z,17.84
2023-04-25T08:11:14.596Z,17.91
2023-04-25T08:13:41.414Z,17.99
2023-04-25T08:16:08.202Z,18.08
2023-04-25T08:18:35.359Z,18.11
2023-04-25T08:21:02.326Z,18.11
2023-04-25T08:23:29.114Z,18.08
2023-04-25T08:26:05.971Z,18.07
2023-04-25T08:28:33.967Z,18.10
2023-04-25T08:31:01.733Z,18.18
2023-04-25T08:33:33.872Z,18.20
2023-04-25T08:36:31.478Z,18.18
2023-04-25T08:39:05.057Z,18.21
2023-04-25T08:41:32.069Z,18.22
2023-04-25T08:44:01.173Z,18.20
2023-04-25T08:46:27.889Z,18.22
2023-04-25T08:49:11.052Z,18.25
2023-04-25T08:51:52.205Z,18.28
2023-04-25T08:54:34.495Z,18.32
2023-04-25T08:57:03.313Z,18.38
2023-04-25T08:59:30.773Z,18.41
2023-04-25T09:01:58.157Z,18.38
2023-04-25T09:04:24.884Z,18.33
2023-04-25T09:06:51.878Z,18.28
2023-04-25T09:09:19.170Z,18.27
2023-04-25T09:11:45.893Z,18.33
2023-04-25T09:14:18.700Z,18.39
2023-04-25T09:17:01.918Z,18.43
2023-04-25T09:19:42.083Z,18.45
2023-04-25T09:22:16.948Z,18.47
2023-04-25T09:24:45.165Z,18.53
2023-04-25T09:27:13.506Z,18.64
2023-04-25T09:29:41.683Z,18.72
2023-04-25T09:32:19.966Z,18.75
2023-04-25T09:34:51.701Z,18.77
2023-04-25T09:37:24.334Z,18.75
2023-04-25T09:40:07.937Z,18.77
2023-04-25T09:42:45.653Z,18.84
2023-04-25T09:45:13.846Z,18.92
2023-04-25T09:47:40.993Z,18.97
2023-04-25T09:50:16.255Z,19.00
2023-04-25T09:52:44.304Z,19.05
2023-04-25T09:55:18.305Z,19.11
2023-04-25T09:57:45.303Z,19.18
2023-04-25T10:00:14.052Z,19.23
2023-04-25T10:02:43.980Z,19.28
2023-04-25T10:05:12.784Z,19.31
2023-04-25T10:07:41.124Z,19.33
2023-04-25T10:10:16.330Z,19.30
2023-04-25T10:12:45.242Z,19.23
2023-04-25T10:15:12.248Z,19.16
2023-04-25T10:17:39.000Z,19.13
2023-04-25T10:20:09.436Z,19.14
2023-04-25T10:22:40.741Z,19.17
2023-04-25T10:25:08.049Z,19.21
2023-04-25T10:27:35.316Z,19.20
2023-04-25T10:30:16.131Z,19.13
2023-04-25T10:32:43.645Z,19.02
2023-04-25T10:35:24.878Z,18.98
2023-04-25T10:37:58.291Z,18.98
2023-04-25T10:40:25.053Z,19.05
2023-04-25T10:42:56.041Z,19.12
2023-04-25T10:45:22.927Z,19.19
2023-04-25T10:47:50.163Z,19.28
2023-04-25T10:50:20.130Z,19.36
2023-04-25T10:52:46.883Z,19.37
2023-04-25T10:55:13.649Z,19.33
2023-04-25T10:57:42.131Z,19.29
2023-04-25T11:00:14.311Z,19.28
2023-04-25T11:02:48.911Z,19.31
2023-04-25T11:05:50.868Z,19.35
2023-04-25T11:08:34.634Z,19.39
2023-04-25T11:11:01.296Z,19.45
2023-04-25T11:13:31.196Z,19.53
2023-04-25T11:16:07.147Z,19.61
2023-04-25T11:18:42.445Z,19.63
2023-04-25T11:21:09.182Z,19.60
2023-04-25T11:23:35.908Z,19.59
2023-04-25T11:26:02.678Z,19.60
2023-04-25T11:28:29.401Z,19.63
2023-04-25T11:30:56.774Z,19.63
2023-04-25T11:33:26.958Z,19.62
2023-04-25T11:35:57.645Z,19.63
2023-04-25T11:38:27.280Z,19.62
2023-04-25T11:40:54.727Z,19.63
2023-04-25T11:43:22.319Z,19.67
2023-04-25T11:45:50.288Z,19.71
2023-04-25T11:48:18.103Z,19.74
2023-04-25T11:50:45.191Z,19.78
2023-04-25T11:53:11.944Z,19.81
2023-04-25T11:55:38.805Z,19.84
2023-04-25T11:58:05.699Z,19.88
2023-04-25T12:00:32.937Z,19.87
2023-04-25T12:02:59.847Z,19.84
2023-04-25T12:05:31.952Z,19.80
2023-04-25T12:08:10.695Z,19.77
2023-04-25T12:10:38.732Z,19.73
2023-04-25T12:13:22.187Z,19.71
2023-04-25T12:15:49.162Z,19.74
2023-04-25T12:18:15.992Z,19.77
2023-04-25T12:20:42.837Z,19.77
2023-04-25T12:23:09.654Z,19.72
2023-04-25T12:25:41.177Z,19.65
2023-04-25T12:28:15.065Z,19.57
2023-04-25T12:31:01.933Z,19.51
2023-04-25T12:33:33.415Z,19.47
2023-04-25T12:36:01.161Z,19.43
2023-04-25T12:38:30.526Z,19.40
2023-04-25T12:40:57.991Z,19.34
2023-04-25T12:43:24.915Z,19.28
2023-04-25T12:45:52.487Z,19.24
2023-04-25T12:48:19.446Z,19.23
2023-04-25T12:50:46.636Z,19.26
2023-04-25T12:53:13.326Z,19.32
2023-04-25T12:55:40.070Z,19.38
2023-04-25T12:58:06.866Z,19.42
2023-04-25T13:00:33.628Z,19.43
2023-04-25T13:03:00.707Z,19.42
2023-04-25T13:05:27.498Z,19.40
2023-04-25T13:07:54.254Z,19.38
2023-04-25T13:10:21.168Z,19.35
2023-04-25T13:12:47.988Z,19.29
2023-04-25T13:15:16.664Z,19.23
2023-04-25T13:17:44.245Z,19.20
2023-04-25T13:20:11.258Z,19.21
2023-04-25T13:22:39.467Z,19.20
2023-04-25T13:25:08.010Z,19.18
2023-04-25T13:27:35.167Z,19.17
2023-04-25T13:30:02.523Z,19.19
2023-04-25T13:32:30.811Z,19.20
2023-04-25T13:34:57.517Z,19.19
2023-04-25T13:37:25.197Z,19.14
2023-04-25T13:39:52.196Z,19.08
2023-04-25T13:42:19.259Z,19.02
2023-04-25T13:44:46.288Z,18.99
2023-04-25T13:47:13.250Z,18.99
2023-04-25T13:49:40.081Z,19.01
2023-04-25T13:52:07.351Z,19.05
2023-04-25T13:54:34.188Z,19.09
2023-04-25T13:57:01.018Z,19.14
2023-04-25T13:59:28.258Z,19.18
2023-04-25T14:01:55.064Z,19.24
2023-04-25T14:04:21.884Z,19.28
2023-04-25T14:06:48.753Z,19.30
2023-04-25T14:09:16.273Z,19.33
2023-04-25T14:11:43.034Z,19.37
2023-04-25T14:14:10.221Z,19.39
2023-04-25T14:16:36.942Z,19.39
2023-04-25T14:19:04.346Z,19.38
2023-04-25T14:21:33.387Z,19.37
2023-04-25T14:24:00.153Z,19.36
2023-04-25T14:26:26.861Z,19.33
2023-04-25T14:28:53.846Z,19.25
2023-04-25T14:31:20.986Z,19.21
2023-04-25T14:33:47.886Z,19.18
2023-04-25T14:36:15.315Z,19.16
2023-04-25T14:38:41.988Z,19.13
2023-04-25T14:41:08.736Z,19.12
2023-04-25T14:43:35.391Z,19.11
2023-04-25T14:46:02.851Z,19.10
2023-04-25T14:48:30.651Z,19.07
2023-04-25T14:50:57.726Z,19.04
2023-04-25T14:53:24.673Z,19.01
2023-04-25T14:55:51.337Z,18.99
2023-04-25T14:58:18.289Z,18.97
2023-04-25T15:00:45.344Z,18.96
2023-04-25T15:03:14.129Z,18.95
2023-04-25T15:05:41.682Z,18.94
2023-04-25T15:08:08.719Z,18.92
2023-04-25T15:10:35.724Z,18.89
2023-04-25T15:13:02.865Z,18.85
2023-04-25T15:15:29.602Z,18.81
2023-04-25T15:17:59.101Z,18.76
2023-04-25T15:20:26.303Z,18.69
2023-04-25T15:22:53.070Z,18.64
2023-04-25T15:25:19.770Z,18.60
2023-04-25T15:27:49.083Z,18.57
2023-04-25T15:30:16.470Z,18.54
2023-04-25T15:32:43.970Z,18.52
2023-04-25T15:35:11.318Z,18.50
2023-04-25T15:37:38.281Z,18.48
2023-04-25T15:40:25.954Z,18.47
2023-04-25T15:42:52.784Z,18.45
2023-04-25T15:45:21.555Z,18.45
2023-04-25T15:47:48.336Z,18.42
2023-04-25T15:50:16.057Z,18.41
2023-04-25T15:52:43.619Z,18.39
2023-04-25T15:55:10.544Z,18.36
2023-04-25T15:57:37.380Z,18.33
2023-04-25T16:00:08.978Z,18.31
2023-04-25T16:02:39.049Z,18.29
2023-04-25T16:05:06.282Z,18.26
2023-04-25T16:07:33.477Z,18.22
2023-04-25T16:10:00.564Z,18.19
2023-04-25T16:12:28.652Z,18.14
2023-04-25T16:14:56.142Z,18.10
2023-04-25T16:17:22.800Z,18.06
2023-04-25T16:19:50.418Z,18.00
2023-04-25T16:22:18.184Z,17.93
2023-04-25T16:24:45.026Z,17.88
2023-04-25T16:27:11.815Z,17.83
2023-04-25T16:29:38.770Z,17.76
2023-04-25T16:32:05.709Z,17.70
2023-04-25T16:34:32.984Z,17.63
2023-04-25T16:36:59.944Z,17.56
2023-04-25T16:39:26.872Z,17.49
2023-04-25T16:41:53.772Z,17.42
2023-04-25T16:44:20.707Z,17.34
2023-04-25T16:46:47.594Z,17.26
2023-04-25T16:49:14.972Z,17.19
2023-04-25T16:51:41.716Z,17.11
2023-04-25T16:54:08.514Z,17.03
2023-04-25T16:56:35.418Z,16.96
2023-04-25T16:59:02.203Z,16.88
2023-04-25T17:01:29.274Z,16.80
2023-04-25T17:03:56.216Z,16.72
2023-04-25T17:06:23.324Z,16.63
2023-04-25T17:08:50.255Z,16.55
2023-04-25T17:11:17.467Z,16.46
2023-04-25T17:13:45.077Z,16.36
2023-04-25T17:16:13.691Z,16.26
2023-04-25T17:18:41.682Z,16.17
2023-04-25T17:21:08.926Z,16.07
2023-04-25T17:23:35.955Z,15.97
2023-04-25T17:26:02.641Z,15.87
2023-04-25T17:28:29.337Z,15.76
2023-04-25T17:30:57.531Z,15.66
2023-04-25T17:33:26.987Z,15.55
2023-04-25T17:35:54.510Z,15.44
2023-04-25T17:38:21.758Z,15.34
2023-04-25T17:40:48.488Z,15.24
2023-04-25T17:43:15.262Z,15.15
2023-04-25T17:45:41.922Z,15.05
2023-04-25T17:48:08.838Z,14.95
2023-04-25T17:50:35.812Z,14.87
2023-04-25T17:53:05.548Z,14.78
2023-04-25T17:55:32.369Z,14.70
2023-04-25T17:57:59.028Z,14.62
2023-04-25T18:00:25.707Z,14.53
2023-04-25T18:02:52.841Z,14.45
2023-04-25T18:05:20.194Z,14.35
2023-04-25T18:07:46.956Z,14.26
2023-04-25T18:10:14.387Z,14.16
2023-04-25T18:12:41.127Z,14.06
2023-04-25T18:15:09.307Z,13.96
2023-04-25T18:17:45.549Z,13.87
2023-04-25T18:20:15.584Z,13.81
2023-04-25T18:22:43.054Z,13.73
2023-04-25T18:25:13.822Z,13.66
2023-04-25T18:27:40.799Z,13.58
2023-04-25T18:30:09.050Z,13.53
2023-04-25T18:32:35.801Z,13.45
2023-04-25T18:35:03.506Z,13.39
2023-04-25T18:37:30.227Z,13.32
2023-04-25T18:39:57.252Z,13.26
2023-04-25T18:42:24.196Z,13.21
2023-04-25T18:44:51.173Z,13.18
2023-04-25T18:47:18.000Z,13.14
2023-04-25T18:49:45.565Z,13.10
2023-04-25T18:52:12.825Z,13.08
2023-04-25T18:54:39.712Z,13.05
2023-04-25T18:57:06.477Z,13.01
2023-04-25T18:59:33.636Z,12.99
2023-04-25T19:02:05.352Z,12.94
2023-04-25T19:04:32.688Z,12.91
2023-04-25T19:06:59.829Z,12.88
2023-04-25T19:09:26.684Z,12.85
2023-04-25T19:11:53.427Z,12.83
2023-04-25T19:14:20.069Z,12.81
2023-04-25T19:16:47.156Z,12.79
2023-04-25T19:19:13.948Z,12.76
2023-04-25T19:21:41.748Z,12.73
2023-04-25T19:24:09.012Z,12.71
2023-04-25T19:27:52.559Z,12.69
2023-04-25T19:30:19.453Z,12.64
2023-04-25T19:32:46.242Z,12.60
2023-04-25T19:35:13.490Z,12.56
2023-04-25T19:37:46.193Z,12.51
2023-04-25T19:40:17.522Z,12.46
2023-04-25T19:42:44.676Z,12.41
2023-04-25T19:45:11.823Z,12.36
2023-04-25T19:47:38.881Z,12.33
2023-04-25T19:50:06.428Z,12.29
2023-04-25T19:52:34.783Z,12.26
2023-04-25T19:55:03.347Z,12.23
2023-04-25T19:57:33.591Z,12.20
2023-04-25T20:00:02.115Z,12.18
2023-04-25T20:02:39.514Z,12.15
2023-04-25T20:05:07.228Z,12.13
2023-04-25T20:07:34.405Z,12.09
2023-04-25T20:10:06.671Z,12.07
2023-04-25T20:12:37.807Z,12.07
2023-04-25T20:15:05.223Z,12.06
2023-04-25T20:17:32.041Z,12.07
2023-04-25T20:19:58.759Z,12.08
2023-04-25T20:22:25.836Z,12.09
2023-04-25T20:24:52.806Z,12.11
2023-04-25T20:27:19.495Z,12.15
2023-04-25T20:29:46.178Z,12.17
2023-04-25T20:32:12.974Z,12.20
2023-04-25T20:34:39.872Z,12.23
2023-04-25T20:37:08.577Z,12.25
2023-04-25T20:39:35.917Z,12.28
2023-04-25T20:42:03.084Z,12.29
2023-04-25T20:44:29.800Z,12.31
2023-04-25T20:46:56.514Z,12.33
2023-04-25T20:49:23.202Z,12.35
2023-04-25T20:51:49.970Z,12.35
2023-04-25T20:54:16.716Z,12.37
2023-04-25T20:56:43.396Z,12.37
2023-04-25T20:59:10.079Z,12.39
2023-04-25T21:01:36.923Z,12.41
2023-04-25T21:04:04.057Z,12.42
2023-04-25T21:06:31.514Z,12.43
2023-04-25T21:08:58.214Z,12.44
2023-04-25T21:11:24.883Z,12.45
2023-04-25T21:13:52.385Z,12.46
2023-04-25T21:16:19.188Z,12.46
2023-04-25T21:18:45.997Z,12.45
2023-04-25T21:21:12.701Z,12.44
2023-04-25T21:23:39.357Z,12.44
2023-04-25T21:26:06.358Z,12.43
2023-04-25T21:28:33.206Z,12.41
2023-04-25T21:30:59.982Z,12.39
2023-04-25T21:33:26.877Z,12.36
2023-04-25T21:35:53.724Z,12.35
2023-04-25T21:38:20.483Z,12.33
2023-04-25T21:40:47.196Z,12.31
2023-04-25T21:43:13.979Z,12.30
2023-04-25T21:46:02.079Z,12.27
2023-04-25T21:48:27.387Z,12.26
2023-04-25T21:50:55.817Z,12.25
2023-04-25T21:53:22.469Z,12.24
2023-04-25T21:55:49.309Z,12.23
2023-04-25T21:58:16.031Z,12.21
2023-04-25T22:00:42.678Z,12.21
2023-04-25T22:03:09.669Z,12.20
2023-04-25T22:05:37.066Z,12.20
2023-04-25T22:08:03.948Z,12.19
2023-04-25T22:10:31.459Z,12.19
2023-04-25T22:12:58.506Z,12.18
2023-04-25T22:15:25.421Z,12.17
2023-04-25T22:17:52.467Z,12.17
2023-04-25T22:20:23.102Z,12.16
2023-04-25T22:22:50.376Z,12.15
2023-04-25T22:25:17.225Z,12.15
2023-04-25T22:27:43.967Z,12.14
2023-04-25T22:30:13.286Z,12.13
2023-04-25T22:32:40.206Z,12.12
2023-04-25T22:35:07.441Z,12.10
2023-04-25T22:37:35.893Z,12.08
2023-04-25T22:40:09.577Z,12.06
2023-04-25T22:42:38.256Z,12.04
2023-04-25T22:45:08.489Z,12.02
2023-04-25T22:47:36.389Z,11.99
2023-04-25T22:50:06.612Z,11.97
2023-04-25T22:52:36.388Z,11.95
2023-04-25T22:55:03.423Z,11.93
2023-04-25T22:57:30.489Z,11.90
2023-04-25T22:59:57.770Z,11.89
2023-04-25T23:02:25.178Z,11.87
2023-04-25T23:04:53.342Z,11.84
2023-04-25T23:07:20.659Z,11.81
2023-04-25T23:09:47.412Z,11.78
2023-04-25T23:12:14.154Z,11.76
2023-04-25T23:14:40.896Z,11.73
2023-04-25T23:17:07.941Z,11.70
2023-04-25T23:19:34.733Z,11.68
2023-04-25T23:22:01.906Z,11.65
2023-04-25T23:24:28.948Z,11.62
2023-04-25T23:26:55.843Z,11.59
2023-04-25T23:29:22.705Z,11.56
2023-04-25T23:31:49.357Z,11.53
2023-04-25T23:34:16.204Z,11.49
2023-04-25T23:36:42.943Z,11.45
2023-04-25T23:39:10.685Z,11.41
2023-04-25T23:41:37.870Z,11.36
2023-04-25T23:44:07.789Z,11.32
2023-04-25T23:46:35.220Z,11.28
2023-04-25T23:49:04.898Z,11.26
2023-04-25T23:51:32.425Z,11.24
2023-04-25T23:53:59.168Z,11.23
2023-04-25T23:56:26.391Z,11.23
2023-04-25T23:58:53.283Z,11.22
